sensor_id;sensor_type;location;lat;lon;timestamp;temperature;humidity
37944;DHT22;23767;42.024;23.086;2023-12-20T00:00:59;0.50;99.90
37944;DHT22;23767;42.024;23.086;2023-12-20T00:03:24;0.60;99.90
37944;DHT22;23767;42.024;23.086;2023-12-20T00:05:50;0.70;99.90
37944;DHT22;23767;42.024;23.086;2023-12-20T00:08:16;0.80;99.90
37944;DHT22;23767;42.024;23.086;2023-12-20T00:10:43;0.90;99.90
37944;DHT22;23767;42.024;23.086;2023-12-20T00:13:09;1.00;99.90
37944;DHT22;23767;42.024;23.086;2023-12-20T00:15:35;1.00;99.90
37944;DHT22;23767;42.024;23.086;2023-12-20T00:18:01;1.00;99.90
37944;DHT22;23767;42.024;23.086;2023-12-20T00:20:27;1.10;99.90
37944;DHT22;23767;42.024;23.086;2023-12-20T00:22:55;1.30;99.90
37944;DHT22;23767;42.024;23.086;2023-12-20T00:25:21;1.20;99.90
37944;DHT22;23767;42.024;23.086;2023-12-20T00:27:47;1.30;99.90
37944;DHT22;23767;42.024;23.086;2023-12-20T00:30:13;1.30;99.90
37944;DHT22;23767;42.024;23.086;2023-12-20T00:32:38;1.20;99.90
37944;DHT22;23767;42.024;23.086;2023-12-20T00:35:05;1.20;99.90
37944;DHT22;23767;42.024;23.086;2023-12-20T00:37:31;1.30;99.90
37944;DHT22;23767;42.024;23.086;2023-12-20T00:39:57;1.40;99.90
37944;DHT22;23767;42.024;23.086;2023-12-20T00:42:22;1.40;99.90
37944;DHT22;23767;42.024;23.086;2023-12-20T00:44:48;1.50;99.90
37944;DHT22;23767;42.024;23.086;2023-12-20T00:47:13;1.50;99.90
37944;DHT22;23767;42.024;23.086;2023-12-20T00:49:39;1.50;99.90
37944;DHT22;23767;42.024;23.086;2023-12-20T00:52:05;1.50;99.90
37944;DHT22;23767;42.024;23.086;2023-12-20T00:54:30;1.50;99.90
37944;DHT22;23767;42.024;23.086;2023-12-20T00:56:56;1.50;99.90
37944;DHT22;23767;42.024;23.086;2023-12-20T00:59:22;1.50;99.90
37944;DHT22;23767;42.024;23.086;2023-12-20T01:01:47;1.40;99.90
37944;DHT22;23767;42.024;23.086;2023-12-20T01:04:13;1.40;99.90
37944;DHT22;23767;42.024;23.086;2023-12-20T01:06:39;1.40;99.90
37944;DHT22;23767;42.024;23.086;2023-12-20T01:09:04;1.40;99.90
37944;DHT22;23767;42.024;23.086;2023-12-20T01:11:30;1.40;99.90
37944;DHT22;23767;42.024;23.086;2023-12-20T01:13:56;1.40;99.90
37944;DHT22;23767;42.024;23.086;2023-12-20T01:16:21;1.50;99.90
37944;DHT22;23767;42.024;23.086;2023-12-20T01:18:47;1.50;99.90
37944;DHT22;23767;42.024;23.086;2023-12-20T01:21:12;1.50;99.90
37944;DHT22;23767;42.024;23.086;2023-12-20T01:23:38;1.50;99.90
37944;DHT22;23767;42.024;23.086;2023-12-20T01:26:04;1.40;99.90
37944;DHT22;23767;42.024;23.086;2023-12-20T01:28:30;1.40;99.90
37944;DHT22;23767;42.024;23.086;2023-12-20T01:30:57;1.40;99.90
37944;DHT22;23767;42.024;23.086;2023-12-20T01:33:23;1.40;99.90
37944;DHT22;23767;42.024;23.086;2023-12-20T01:35:48;1.40;99.90
37944;DHT22;23767;42.024;23.086;2023-12-20T01:38:14;1.30;99.90
37944;DHT22;23767;42.024;23.086;2023-12-20T01:40:40;1.30;99.90
37944;DHT22;23767;42.024;23.086;2023-12-20T01:43:09;1.30;99.90
37944;DHT22;23767;42.024;23.086;2023-12-20T01:45:35;1.40;99.90
37944;DHT22;23767;42.024;23.086;2023-12-20T01:48:01;1.30;99.90
37944;DHT22;23767;42.024;23.086;2023-12-20T01:50:28;1.30;99.90
37944;DHT22;23767;42.024;23.086;2023-12-20T01:52:56;1.30;99.90
37944;DHT22;23767;42.024;23.086;2023-12-20T01:55:24;1.30;99.90
37944;DHT22;23767;42.024;23.086;2023-12-20T01:57:50;1.30;99.90
37944;DHT22;23767;42.024;23.086;2023-12-20T02:00:17;1.30;99.90
37944;DHT22;23767;42.024;23.086;2023-12-20T02:02:45;1.30;99.90
37944;DHT22;23767;42.024;23.086;2023-12-20T02:05:11;1.30;99.90
37944;DHT22;23767;42.024;23.086;2023-12-20T02:07:37;1.40;99.90
37944;DHT22;23767;42.024;23.086;2023-12-20T02:10:03;1.30;99.90
37944;DHT22;23767;42.024;23.086;2023-12-20T02:12:31;1.30;99.90
37944;DHT22;23767;42.024;23.086;2023-12-20T02:14:57;1.30;99.90
37944;DHT22;23767;42.024;23.086;2023-12-20T02:17:23;1.30;99.90
37944;DHT22;23767;42.024;23.086;2023-12-20T02:19:49;1.30;99.90
37944;DHT22;23767;42.024;23.086;2023-12-20T02:22:15;1.30;99.90
37944;DHT22;23767;42.024;23.086;2023-12-20T02:24:41;1.30;99.90
37944;DHT22;23767;42.024;23.086;2023-12-20T02:27:07;1.30;99.90
37944;DHT22;23767;42.024;23.086;2023-12-20T02:29:34;1.40;99.90
37944;DHT22;23767;42.024;23.086;2023-12-20T02:32:00;1.40;99.90
37944;DHT22;23767;42.024;23.086;2023-12-20T02:34:25;1.30;99.90
37944;DHT22;23767;42.024;23.086;2023-12-20T02:36:51;1.40;99.90
37944;DHT22;23767;42.024;23.086;2023-12-20T02:39:18;1.30;99.90
37944;DHT22;23767;42.024;23.086;2023-12-20T02:41:44;1.20;99.90
37944;DHT22;23767;42.024;23.086;2023-12-20T02:44:10;1.20;99.90
37944;DHT22;23767;42.024;23.086;2023-12-20T02:46:35;1.20;99.90
37944;DHT22;23767;42.024;23.086;2023-12-20T02:49:01;1.10;99.90
37944;DHT22;23767;42.024;23.086;2023-12-20T02:51:27;1.20;99.90
37944;DHT22;23767;42.024;23.086;2023-12-20T02:53:52;1.10;99.90
37944;DHT22;23767;42.024;23.086;2023-12-20T02:56:18;1.10;99.90
37944;DHT22;23767;42.024;23.086;2023-12-20T02:58:44;1.10;99.90
37944;DHT22;23767;42.024;23.086;2023-12-20T03:01:09;1.00;99.90
37944;DHT22;23767;42.024;23.086;2023-12-20T03:03:35;1.10;99.90
37944;DHT22;23767;42.024;23.086;2023-12-20T03:06:01;1.00;99.90
37944;DHT22;23767;42.024;23.086;2023-12-20T03:08:26;1.00;99.90
37944;DHT22;23767;42.024;23.086;2023-12-20T03:10:52;0.90;99.90
37944;DHT22;23767;42.024;23.086;2023-12-20T03:13:19;0.80;99.90
37944;DHT22;23767;42.024;23.086;2023-12-20T03:15:45;0.70;99.90
37944;DHT22;23767;42.024;23.086;2023-12-20T03:18:11;0.60;99.90
37944;DHT22;23767;42.024;23.086;2023-12-20T03:20:37;0.60;99.90
37944;DHT22;23767;42.024;23.086;2023-12-20T03:23:04;0.70;99.90
37944;DHT22;23767;42.024;23.086;2023-12-20T03:25:29;0.70;99.90
37944;DHT22;23767;42.024;23.086;2023-12-20T03:27:55;0.80;99.90
37944;DHT22;23767;42.024;23.086;2023-12-20T03:30:21;0.90;99.90
37944;DHT22;23767;42.024;23.086;2023-12-20T03:32:47;1.00;99.90
37944;DHT22;23767;42.024;23.086;2023-12-20T03:35:12;1.00;99.90
37944;DHT22;23767;42.024;23.086;2023-12-20T03:37:38;1.10;99.90
37944;DHT22;23767;42.024;23.086;2023-12-20T03:40:04;1.10;99.90
37944;DHT22;23767;42.024;23.086;2023-12-20T03:42:30;1.00;99.90
37944;DHT22;23767;42.024;23.086;2023-12-20T03:44:56;0.70;99.90
37944;DHT22;23767;42.024;23.086;2023-12-20T03:47:22;0.50;99.90
37944;DHT22;23767;42.024;23.086;2023-12-20T03:49:47;0.50;99.90
37944;DHT22;23767;42.024;23.086;2023-12-20T03:52:13;0.50;99.90
37944;DHT22;23767;42.024;23.086;2023-12-20T03:54:39;0.60;99.90
37944;DHT22;23767;42.024;23.086;2023-12-20T03:57:07;0.60;99.90
37944;DHT22;23767;42.024;23.086;2023-12-20T03:59:36;0.60;99.90
37944;DHT22;23767;42.024;23.086;2023-12-20T04:02:01;0.70;99.90
37944;DHT22;23767;42.024;23.086;2023-12-20T04:04:27;0.50;99.90
37944;DHT22;23767;42.024;23.086;2023-12-20T04:06:53;0.60;99.90
37944;DHT22;23767;42.024;23.086;2023-12-20T04:09:18;0.70;99.90
37944;DHT22;23767;42.024;23.086;2023-12-20T04:11:44;0.80;99.90
37944;DHT22;23767;42.024;23.086;2023-12-20T04:14:10;0.90;99.90
37944;DHT22;23767;42.024;23.086;2023-12-20T04:16:35;0.90;99.90
37944;DHT22;23767;42.024;23.086;2023-12-20T04:19:01;1.00;99.90
37944;DHT22;23767;42.024;23.086;2023-12-20T04:21:27;1.10;99.90
37944;DHT22;23767;42.024;23.086;2023-12-20T04:23:53;1.20;99.90
37944;DHT22;23767;42.024;23.086;2023-12-20T04:26:19;1.20;99.90
37944;DHT22;23767;42.024;23.086;2023-12-20T04:28:44;1.10;99.90
37944;DHT22;23767;42.024;23.086;2023-12-20T04:31:10;1.00;99.90
37944;DHT22;23767;42.024;23.086;2023-12-20T04:33:35;1.10;99.90
37944;DHT22;23767;42.024;23.086;2023-12-20T04:36:01;1.00;99.90
37944;DHT22;23767;42.024;23.086;2023-12-20T04:38:27;1.00;99.90
37944;DHT22;23767;42.024;23.086;2023-12-20T04:40:52;1.00;99.90
37944;DHT22;23767;42.024;23.086;2023-12-20T04:43:18;1.00;99.90
37944;DHT22;23767;42.024;23.086;2023-12-20T04:45:44;1.00;99.90
37944;DHT22;23767;42.024;23.086;2023-12-20T04:48:09;1.00;99.90
37944;DHT22;23767;42.024;23.086;2023-12-20T04:50:35;0.90;99.90
37944;DHT22;23767;42.024;23.086;2023-12-20T04:53:01;0.90;99.90
37944;DHT22;23767;42.024;23.086;2023-12-20T04:55:26;0.90;99.90
37944;DHT22;23767;42.024;23.086;2023-12-20T04:57:52;0.80;99.90
37944;DHT22;23767;42.024;23.086;2023-12-20T05:02:53;0.80;99.90
37944;DHT22;23767;42.024;23.086;2023-12-20T05:05:19;0.90;99.90
37944;DHT22;23767;42.024;23.086;2023-12-20T05:07:44;1.00;99.90
37944;DHT22;23767;42.024;23.086;2023-12-20T05:10:10;1.10;99.90
37944;DHT22;23767;42.024;23.086;2023-12-20T05:12:36;1.10;99.90
37944;DHT22;23767;42.024;23.086;2023-12-20T05:15:01;1.10;99.90
37944;DHT22;23767;42.024;23.086;2023-12-20T05:17:27;1.20;99.90
37944;DHT22;23767;42.024;23.086;2023-12-20T05:19:52;1.20;99.90
37944;DHT22;23767;42.024;23.086;2023-12-20T05:22:19;1.20;99.90
37944;DHT22;23767;42.024;23.086;2023-12-20T05:24:45;1.20;99.90
37944;DHT22;23767;42.024;23.086;2023-12-20T05:27:11;1.30;99.90
37944;DHT22;23767;42.024;23.086;2023-12-20T05:29:37;1.30;99.90
37944;DHT22;23767;42.024;23.086;2023-12-20T05:32:03;1.30;99.90
37944;DHT22;23767;42.024;23.086;2023-12-20T05:34:30;1.30;99.90
37944;DHT22;23767;42.024;23.086;2023-12-20T05:36:57;1.20;99.90
37944;DHT22;23767;42.024;23.086;2023-12-20T05:39:22;1.20;99.90
37944;DHT22;23767;42.024;23.086;2023-12-20T05:41:48;1.10;99.90
37944;DHT22;23767;42.024;23.086;2023-12-20T05:44:14;1.10;99.90
37944;DHT22;23767;42.024;23.086;2023-12-20T05:46:39;1.10;99.90
37944;DHT22;23767;42.024;23.086;2023-12-20T05:49:06;1.10;99.90
37944;DHT22;23767;42.024;23.086;2023-12-20T05:51:31;1.10;99.90
37944;DHT22;23767;42.024;23.086;2023-12-20T05:53:57;1.10;99.90
37944;DHT22;23767;42.024;23.086;2023-12-20T05:56:22;1.10;99.90
37944;DHT22;23767;42.024;23.086;2023-12-20T05:58:48;1.10;99.90
37944;DHT22;23767;42.024;23.086;2023-12-20T06:01:16;1.00;99.90
37944;DHT22;23767;42.024;23.086;2023-12-20T06:03:43;0.50;99.90
37944;DHT22;23767;42.024;23.086;2023-12-20T06:06:09;0.40;99.90
37944;DHT22;23767;42.024;23.086;2023-12-20T06:08:35;0.40;99.90
37944;DHT22;23767;42.024;23.086;2023-12-20T06:11:01;0.20;99.90
37944;DHT22;23767;42.024;23.086;2023-12-20T06:13:26;0.20;99.90
37944;DHT22;23767;42.024;23.086;2023-12-20T06:15:54;0.10;99.90
37944;DHT22;23767;42.024;23.086;2023-12-20T06:18:20;0.00;99.90
37944;DHT22;23767;42.024;23.086;2023-12-20T06:20:46;-0.10;99.90
37944;DHT22;23767;42.024;23.086;2023-12-20T06:23:11;-0.10;99.90
37944;DHT22;23767;42.024;23.086;2023-12-20T06:25:37;-0.20;99.90
37944;DHT22;23767;42.024;23.086;2023-12-20T06:28:03;-0.20;99.90
37944;DHT22;23767;42.024;23.086;2023-12-20T06:30:29;-0.40;99.90
37944;DHT22;23767;42.024;23.086;2023-12-20T06:32:55;-0.40;99.90
37944;DHT22;23767;42.024;23.086;2023-12-20T06:35:23;-0.30;99.90
37944;DHT22;23767;42.024;23.086;2023-12-20T06:37:48;-0.30;99.90
37944;DHT22;23767;42.024;23.086;2023-12-20T06:40:14;-0.20;99.90
37944;DHT22;23767;42.024;23.086;2023-12-20T06:42:39;-0.30;99.90
37944;DHT22;23767;42.024;23.086;2023-12-20T06:45:05;-0.40;99.90
37944;DHT22;23767;42.024;23.086;2023-12-20T06:47:31;-0.50;99.90
37944;DHT22;23767;42.024;23.086;2023-12-20T06:49:57;-0.40;99.90
37944;DHT22;23767;42.024;23.086;2023-12-20T06:52:22;-0.50;99.90
37944;DHT22;23767;42.024;23.086;2023-12-20T06:54:48;-0.50;99.90
37944;DHT22;23767;42.024;23.086;2023-12-20T06:57:14;-0.40;99.90
37944;DHT22;23767;42.024;23.086;2023-12-20T06:59:40;-0.50;99.90
37944;DHT22;23767;42.024;23.086;2023-12-20T07:02:06;-0.50;99.90
37944;DHT22;23767;42.024;23.086;2023-12-20T07:04:32;-0.50;99.90
37944;DHT22;23767;42.024;23.086;2023-12-20T07:06:58;-0.50;99.90
37944;DHT22;23767;42.024;23.086;2023-12-20T07:09:26;-0.50;99.90
37944;DHT22;23767;42.024;23.086;2023-12-20T07:11:52;-0.30;99.90
37944;DHT22;23767;42.024;23.086;2023-12-20T07:14:18;-0.40;99.90
37944;DHT22;23767;42.024;23.086;2023-12-20T07:16:43;-0.50;99.90
37944;DHT22;23767;42.024;23.086;2023-12-20T07:19:09;-0.50;99.90
37944;DHT22;23767;42.024;23.086;2023-12-20T07:21:35;-0.40;99.90
37944;DHT22;23767;42.024;23.086;2023-12-20T07:24:00;-0.20;99.90
37944;DHT22;23767;42.024;23.086;2023-12-20T07:26:26;-0.30;99.90
37944;DHT22;23767;42.024;23.086;2023-12-20T07:28:52;-0.30;99.90
37944;DHT22;23767;42.024;23.086;2023-12-20T07:31:17;-0.40;99.90
37944;DHT22;23767;42.024;23.086;2023-12-20T07:33:43;-0.50;99.90
37944;DHT22;23767;42.024;23.086;2023-12-20T07:36:08;-0.40;99.90
37944;DHT22;23767;42.024;23.086;2023-12-20T07:38:34;-0.40;99.90
37944;DHT22;23767;42.024;23.086;2023-12-20T07:41:00;-0.60;99.90
37944;DHT22;23767;42.024;23.086;2023-12-20T07:43:26;-0.60;99.90
37944;DHT22;23767;42.024;23.086;2023-12-20T07:45:51;-0.60;99.90
37944;DHT22;23767;42.024;23.086;2023-12-20T07:48:17;-0.60;99.90
37944;DHT22;23767;42.024;23.086;2023-12-20T07:50:42;-0.70;99.90
37944;DHT22;23767;42.024;23.086;2023-12-20T07:53:08;-0.70;99.90
37944;DHT22;23767;42.024;23.086;2023-12-20T07:55:34;-0.60;99.90
37944;DHT22;23767;42.024;23.086;2023-12-20T07:58:00;-0.60;99.90
37944;DHT22;23767;42.024;23.086;2023-12-20T08:00:26;-0.70;99.90
37944;DHT22;23767;42.024;23.086;2023-12-20T08:02:52;-0.90;99.90
37944;DHT22;23767;42.024;23.086;2023-12-20T08:05:18;-1.00;99.90
37944;DHT22;23767;42.024;23.086;2023-12-20T08:07:43;-0.90;99.90
37944;DHT22;23767;42.024;23.086;2023-12-20T08:10:09;-0.90;99.90
37944;DHT22;23767;42.024;23.086;2023-12-20T08:12:35;-0.80;99.90
37944;DHT22;23767;42.024;23.086;2023-12-20T08:15:01;-0.70;99.90
37944;DHT22;23767;42.024;23.086;2023-12-20T08:17:27;-0.50;99.90
37944;DHT22;23767;42.024;23.086;2023-12-20T08:19:53;-0.40;99.90
37944;DHT22;23767;42.024;23.086;2023-12-20T08:22:18;-0.30;99.90
37944;DHT22;23767;42.024;23.086;2023-12-20T08:24:44;-0.20;99.90
37944;DHT22;23767;42.024;23.086;2023-12-20T08:27:10;-0.30;99.90
37944;DHT22;23767;42.024;23.086;2023-12-20T08:29:35;-0.30;99.90
37944;DHT22;23767;42.024;23.086;2023-12-20T08:32:01;-0.20;99.90
37944;DHT22;23767;42.024;23.086;2023-12-20T08:34:27;-0.20;99.90
37944;DHT22;23767;42.024;23.086;2023-12-20T08:36:53;-0.30;99.90
37944;DHT22;23767;42.024;23.086;2023-12-20T08:39:19;-0.40;99.90
37944;DHT22;23767;42.024;23.086;2023-12-20T08:41:45;-0.40;99.90
37944;DHT22;23767;42.024;23.086;2023-12-20T08:44:10;-0.30;99.90
37944;DHT22;23767;42.024;23.086;2023-12-20T08:46:36;-0.30;99.90
37944;DHT22;23767;42.024;23.086;2023-12-20T08:49:02;-0.30;99.90
37944;DHT22;23767;42.024;23.086;2023-12-20T08:51:28;-0.10;99.90
37944;DHT22;23767;42.024;23.086;2023-12-20T08:53:54;0.00;99.90
37944;DHT22;23767;42.024;23.086;2023-12-20T08:56:20;0.00;99.90
37944;DHT22;23767;42.024;23.086;2023-12-20T08:58:46;0.10;99.90
37944;DHT22;23767;42.024;23.086;2023-12-20T09:01:13;0.00;99.90
37944;DHT22;23767;42.024;23.086;2023-12-20T09:03:39;0.00;99.90
37944;DHT22;23767;42.024;23.086;2023-12-20T09:06:05;0.00;99.90
37944;DHT22;23767;42.024;23.086;2023-12-20T09:08:31;0.10;99.90
37944;DHT22;23767;42.024;23.086;2023-12-20T09:10:56;0.30;99.90
37944;DHT22;23767;42.024;23.086;2023-12-20T09:13:22;0.40;99.90
37944;DHT22;23767;42.024;23.086;2023-12-20T09:15:57;0.40;99.90
37944;DHT22;23767;42.024;23.086;2023-12-20T09:18:22;0.30;99.90
37944;DHT22;23767;42.024;23.086;2023-12-20T09:20:48;0.50;99.90
37944;DHT22;23767;42.024;23.086;2023-12-20T09:23:14;0.70;99.90
37944;DHT22;23767;42.024;23.086;2023-12-20T09:25:39;0.90;99.90
37944;DHT22;23767;42.024;23.086;2023-12-20T09:28:05;0.90;99.90
37944;DHT22;23767;42.024;23.086;2023-12-20T09:30:31;1.00;99.90
37944;DHT22;23767;42.024;23.086;2023-12-20T09:32:57;1.00;99.90
37944;DHT22;23767;42.024;23.086;2023-12-20T09:35:23;1.10;99.90
37944;DHT22;23767;42.024;23.086;2023-12-20T09:37:48;1.20;99.90
37944;DHT22;23767;42.024;23.086;2023-12-20T09:40:18;1.30;99.90
37944;DHT22;23767;42.024;23.086;2023-12-20T09:45:15;1.70;99.90
37944;DHT22;23767;42.024;23.086;2023-12-20T09:47:43;2.00;99.90
37944;DHT22;23767;42.024;23.086;2023-12-20T09:50:09;2.10;99.90
37944;DHT22;23767;42.024;23.086;2023-12-20T09:52:36;2.20;99.90
37944;DHT22;23767;42.024;23.086;2023-12-20T09:55:04;2.30;99.90
37944;DHT22;23767;42.024;23.086;2023-12-20T09:57:33;2.50;99.90
37944;DHT22;23767;42.024;23.086;2023-12-20T09:59:59;2.50;99.90
37944;DHT22;23767;42.024;23.086;2023-12-20T10:02:25;2.50;99.90
37944;DHT22;23767;42.024;23.086;2023-12-20T10:04:55;2.50;99.90
37944;DHT22;23767;42.024;23.086;2023-12-20T10:07:21;2.50;99.90
37944;DHT22;23767;42.024;23.086;2023-12-20T10:09:47;2.50;99.90
37944;DHT22;23767;42.024;23.086;2023-12-20T10:12:13;2.50;99.90
37944;DHT22;23767;42.024;23.086;2023-12-20T10:14:39;2.60;99.90
37944;DHT22;23767;42.024;23.086;2023-12-20T10:17:05;2.60;99.90
37944;DHT22;23767;42.024;23.086;2023-12-20T10:19:32;2.60;99.90
37944;DHT22;23767;42.024;23.086;2023-12-20T10:21:59;2.60;99.90
37944;DHT22;23767;42.024;23.086;2023-12-20T10:24:25;2.50;99.90
37944;DHT22;23767;42.024;23.086;2023-12-20T10:27:03;2.50;99.90
37944;DHT22;23767;42.024;23.086;2023-12-20T10:29:34;2.60;99.90
37944;DHT22;23767;42.024;23.086;2023-12-20T10:31:59;2.70;99.90
37944;DHT22;23767;42.024;23.086;2023-12-20T10:34:25;2.60;99.90
37944;DHT22;23767;42.024;23.086;2023-12-20T10:36:51;2.60;99.90
37944;DHT22;23767;42.024;23.086;2023-12-20T10:39:17;2.70;99.90
37944;DHT22;23767;42.024;23.086;2023-12-20T10:41:46;2.70;99.90
37944;DHT22;23767;42.024;23.086;2023-12-20T10:44:12;2.70;99.90
37944;DHT22;23767;42.024;23.086;2023-12-20T10:46:40;2.70;99.90
37944;DHT22;23767;42.024;23.086;2023-12-20T10:49:07;2.70;99.90
37944;DHT22;23767;42.024;23.086;2023-12-20T10:51:34;2.70;99.90
37944;DHT22;23767;42.024;23.086;2023-12-20T10:54:00;2.70;99.90
37944;DHT22;23767;42.024;23.086;2023-12-20T10:56:31;2.70;99.90
37944;DHT22;23767;42.024;23.086;2023-12-20T10:58:58;2.80;99.90
37944;DHT22;23767;42.024;23.086;2023-12-20T11:01:29;2.80;99.90
37944;DHT22;23767;42.024;23.086;2023-12-20T11:03:55;2.90;99.90
37944;DHT22;23767;42.024;23.086;2023-12-20T11:06:40;2.80;99.90
37944;DHT22;23767;42.024;23.086;2023-12-20T11:09:14;2.70;99.90
37944;DHT22;23767;42.024;23.086;2023-12-20T11:11:46;2.70;99.90
37944;DHT22;23767;42.024;23.086;2023-12-20T11:14:34;2.80;99.90
37944;DHT22;23767;42.024;23.086;2023-12-20T11:19:35;2.90;99.90
37944;DHT22;23767;42.024;23.086;2023-12-20T11:22:01;2.90;99.90
37944;DHT22;23767;42.024;23.086;2023-12-20T11:24:26;2.90;99.90
37944;DHT22;23767;42.024;23.086;2023-12-20T11:26:56;2.80;99.90
37944;DHT22;23767;42.024;23.086;2023-12-20T11:29:34;2.80;99.90
37944;DHT22;23767;42.024;23.086;2023-12-20T11:32:27;2.80;99.90
37944;DHT22;23767;42.024;23.086;2023-12-20T11:34:57;2.80;99.90
37944;DHT22;23767;42.024;23.086;2023-12-20T11:37:29;2.90;99.90
37944;DHT22;23767;42.024;23.086;2023-12-20T11:40:01;3.00;99.90
37944;DHT22;23767;42.024;23.086;2023-12-20T11:42:28;2.90;99.90
37944;DHT22;23767;42.024;23.086;2023-12-20T11:44:53;2.80;99.90
37944;DHT22;23767;42.024;23.086;2023-12-20T11:47:19;2.70;99.90
37944;DHT22;23767;42.024;23.086;2023-12-20T11:49:47;2.80;99.90
37944;DHT22;23767;42.024;23.086;2023-12-20T11:52:14;2.90;99.90
37944;DHT22;23767;42.024;23.086;2023-12-20T11:54:39;3.00;99.90
37944;DHT22;23767;42.024;23.086;2023-12-20T11:57:05;2.90;99.90
37944;DHT22;23767;42.024;23.086;2023-12-20T11:59:31;3.00;99.90
37944;DHT22;23767;42.024;23.086;2023-12-20T12:01:58;3.10;99.90
37944;DHT22;23767;42.024;23.086;2023-12-20T12:04:26;3.20;99.90
37944;DHT22;23767;42.024;23.086;2023-12-20T12:06:52;3.30;99.90
37944;DHT22;23767;42.024;23.086;2023-12-20T12:09:18;3.40;99.90
37944;DHT22;23767;42.024;23.086;2023-12-20T12:11:43;3.40;99.90
37944;DHT22;23767;42.024;23.086;2023-12-20T12:14:09;3.50;99.90
37944;DHT22;23767;42.024;23.086;2023-12-20T12:16:35;3.50;99.90
37944;DHT22;23767;42.024;23.086;2023-12-20T12:19:01;3.60;99.90
37944;DHT22;23767;42.024;23.086;2023-12-20T12:21:26;3.60;99.90
37944;DHT22;23767;42.024;23.086;2023-12-20T12:23:52;3.70;99.90
37944;DHT22;23767;42.024;23.086;2023-12-20T12:26:18;3.70;99.90
37944;DHT22;23767;42.024;23.086;2023-12-20T12:28:44;3.80;99.90
37944;DHT22;23767;42.024;23.086;2023-12-20T12:31:14;3.80;99.90
37944;DHT22;23767;42.024;23.086;2023-12-20T12:33:41;3.90;99.90
37944;DHT22;23767;42.024;23.086;2023-12-20T12:36:07;3.80;99.90
37944;DHT22;23767;42.024;23.086;2023-12-20T12:38:33;3.80;99.90
37944;DHT22;23767;42.024;23.086;2023-12-20T12:41:00;3.80;99.90
37944;DHT22;23767;42.024;23.086;2023-12-20T12:43:26;3.80;99.90
37944;DHT22;23767;42.024;23.086;2023-12-20T12:45:53;3.70;99.90
37944;DHT22;23767;42.024;23.086;2023-12-20T12:48:19;3.60;99.90
37944;DHT22;23767;42.024;23.086;2023-12-20T12:50:46;3.70;99.90
37944;DHT22;23767;42.024;23.086;2023-12-20T12:53:11;3.60;99.90
37944;DHT22;23767;42.024;23.086;2023-12-20T12:55:37;3.60;99.90
37944;DHT22;23767;42.024;23.086;2023-12-20T12:58:03;3.50;99.90
37944;DHT22;23767;42.024;23.086;2023-12-20T13:00:28;3.50;99.90
37944;DHT22;23767;42.024;23.086;2023-12-20T13:02:54;3.50;99.90
37944;DHT22;23767;42.024;23.086;2023-12-20T13:05:20;3.40;99.90
37944;DHT22;23767;42.024;23.086;2023-12-20T13:07:45;3.30;99.90
37944;DHT22;23767;42.024;23.086;2023-12-20T13:10:11;3.20;99.90
37944;DHT22;23767;42.024;23.086;2023-12-20T13:12:37;3.20;99.90
37944;DHT22;23767;42.024;23.086;2023-12-20T13:15:03;3.30;99.90
37944;DHT22;23767;42.024;23.086;2023-12-20T13:17:31;3.20;99.90
37944;DHT22;23767;42.024;23.086;2023-12-20T13:19:57;3.20;99.90
37944;DHT22;23767;42.024;23.086;2023-12-20T13:22:23;3.20;99.90
37944;DHT22;23767;42.024;23.086;2023-12-20T13:24:48;3.20;99.90
37944;DHT22;23767;42.024;23.086;2023-12-20T13:27:14;3.10;99.90
37944;DHT22;23767;42.024;23.086;2023-12-20T13:29:40;3.10;99.90
37944;DHT22;23767;42.024;23.086;2023-12-20T13:32:06;3.20;99.90
37944;DHT22;23767;42.024;23.086;2023-12-20T13:34:31;3.20;99.90
37944;DHT22;23767;42.024;23.086;2023-12-20T13:36:57;3.20;99.90
37944;DHT22;23767;42.024;23.086;2023-12-20T13:39:23;3.20;99.90
37944;DHT22;23767;42.024;23.086;2023-12-20T13:41:49;3.20;99.90
37944;DHT22;23767;42.024;23.086;2023-12-20T13:44:15;3.30;99.90
37944;DHT22;23767;42.024;23.086;2023-12-20T13:46:41;3.30;99.90
37944;DHT22;23767;42.024;23.086;2023-12-20T13:49:07;3.30;99.90
37944;DHT22;23767;42.024;23.086;2023-12-20T13:51:32;3.20;99.90
37944;DHT22;23767;42.024;23.086;2023-12-20T13:53:58;3.20;99.90
37944;DHT22;23767;42.024;23.086;2023-12-20T13:56:25;3.00;99.90
37944;DHT22;23767;42.024;23.086;2023-12-20T13:58:50;2.90;99.90
37944;DHT22;23767;42.024;23.086;2023-12-20T14:01:17;2.80;99.90
37944;DHT22;23767;42.024;23.086;2023-12-20T14:03:42;2.80;99.90
37944;DHT22;23767;42.024;23.086;2023-12-20T14:06:08;2.70;99.90
37944;DHT22;23767;42.024;23.086;2023-12-20T14:08:34;2.70;99.90
37944;DHT22;23767;42.024;23.086;2023-12-20T14:11:01;2.80;99.90
37944;DHT22;23767;42.024;23.086;2023-12-20T14:13:27;2.90;99.90
37944;DHT22;23767;42.024;23.086;2023-12-20T14:15:52;2.90;99.90
37944;DHT22;23767;42.024;23.086;2023-12-20T14:18:19;2.90;99.90
37944;DHT22;23767;42.024;23.086;2023-12-20T14:20:45;3.00;99.90
37944;DHT22;23767;42.024;23.086;2023-12-20T14:23:12;3.00;99.90
37944;DHT22;23767;42.024;23.086;2023-12-20T14:25:41;3.10;99.90
37944;DHT22;23767;42.024;23.086;2023-12-20T14:28:06;3.00;99.90
37944;DHT22;23767;42.024;23.086;2023-12-20T14:30:32;3.00;99.90
37944;DHT22;23767;42.024;23.086;2023-12-20T14:32:58;2.90;99.90
37944;DHT22;23767;42.024;23.086;2023-12-20T14:35:24;2.90;99.90
37944;DHT22;23767;42.024;23.086;2023-12-20T14:37:49;2.90;99.90
37944;DHT22;23767;42.024;23.086;2023-12-20T14:40:16;2.90;99.90
37944;DHT22;23767;42.024;23.086;2023-12-20T14:42:45;2.90;99.90
37944;DHT22;23767;42.024;23.086;2023-12-20T14:45:11;2.70;99.90
37944;DHT22;23767;42.024;23.086;2023-12-20T14:47:39;2.70;99.90
37944;DHT22;23767;42.024;23.086;2023-12-20T14:50:05;2.70;99.90
37944;DHT22;23767;42.024;23.086;2023-12-20T14:52:32;2.70;99.90
37944;DHT22;23767;42.024;23.086;2023-12-20T14:54:59;2.70;99.90
37944;DHT22;23767;42.024;23.086;2023-12-20T14:57:25;2.70;99.90
37944;DHT22;23767;42.024;23.086;2023-12-20T14:59:52;2.70;99.90
37944;DHT22;23767;42.024;23.086;2023-12-20T15:02:17;2.70;99.90
37944;DHT22;23767;42.024;23.086;2023-12-20T15:04:44;2.60;99.90
37944;DHT22;23767;42.024;23.086;2023-12-20T15:07:10;2.60;99.90
37944;DHT22;23767;42.024;23.086;2023-12-20T15:09:35;2.60;99.90
37944;DHT22;23767;42.024;23.086;2023-12-20T15:12:01;2.50;99.90
37944;DHT22;23767;42.024;23.086;2023-12-20T15:14:27;2.50;99.90
37944;DHT22;23767;42.024;23.086;2023-12-20T15:16:54;2.50;99.90
37944;DHT22;23767;42.024;23.086;2023-12-20T15:19:21;2.60;99.90
37944;DHT22;23767;42.024;23.086;2023-12-20T15:21:46;2.50;99.90
37944;DHT22;23767;42.024;23.086;2023-12-20T15:24:12;2.50;99.90
37944;DHT22;23767;42.024;23.086;2023-12-20T15:26:42;2.60;99.90
37944;DHT22;23767;42.024;23.086;2023-12-20T15:29:09;2.50;99.90